createdAt,value
2017-07-16T00:00:15.962Z,101913.00
2017-07-16T00:02:19.586Z,101918.69
2017-07-16T00:04:23.155Z,101908.70
2017-07-16T00:06:27.160Z,101920.30
2017-07-16T00:08:30.627Z,101918.60
2017-07-16T00:10:34.455Z,101926.55
2017-07-16T00:12:38.580Z,101928.92
2017-07-16T00:14:42.161Z,101927.91
2017-07-16T00:16:46.068Z,101928.19
2017-07-16T00:18:55.399Z,101928.55
2017-07-16T00:20:59.407Z,101931.56
2017-07-16T00:23:03.105Z,101933.26
2017-07-16T00:25:07.006Z,101933.52
2017-07-16T00:27:10.805Z,101927.40
2017-07-16T00:29:14.302Z,101930.61
2017-07-16T00:31:17.901Z,101935.88
2017-07-16T00:33:21.595Z,101928.84
2017-07-16T00:35:25.703Z,101943.31
2017-07-16T00:37:29.532Z,101945.02
2017-07-16T00:39:33.281Z,101938.59
2017-07-16T00:41:37.212Z,101943.59
2017-07-16T00:43:40.273Z,101937.83
2017-07-16T00:45:44.186Z,101941.47
2017-07-16T00:47:47.590Z,101933.45
2017-07-16T00:49:50.987Z,101935.63
2017-07-16T00:51:54.681Z,101927.92
2017-07-16T00:53:58.154Z,101928.55
2017-07-16T00:56:01.569Z,101927.33
2017-07-16T00:58:05.368Z,101927.76
2017-07-16T01:00:09.381Z,101922.50
2017-07-16T01:02:13.097Z,101931.75
2017-07-16T01:04:16.579Z,101930.74
2017-07-16T01:06:19.976Z,101935.90
2017-07-16T01:08:23.914Z,101936.33
2017-07-16T01:10:27.952Z,101936.24
2017-07-16T01:12:31.469Z,101936.75
2017-07-16T01:14:34.960Z,101938.46
2017-07-16T01:16:38.796Z,101935.16
2017-07-16T01:18:42.460Z,101933.05
2017-07-16T01:20:45.851Z,101936.18
2017-07-16T01:22:49.555Z,101930.56
2017-07-16T01:24:52.847Z,101931.84
2017-07-16T01:26:56.642Z,101928.13
2017-07-16T01:28:59.713Z,101930.92
2017-07-16T01:31:03.636Z,101934.31
2017-07-16T01:33:07.539Z,101937.53
2017-07-16T01:35:11.543Z,101937.34
2017-07-16T01:37:15.444Z,101940.98
2017-07-16T01:39:18.937Z,101944.65
2017-07-16T01:41:22.434Z,101949.22
2017-07-16T01:43:25.722Z,101952.43
2017-07-16T01:45:29.626Z,101953.63
2017-07-16T01:47:33.454Z,101948.30
2017-07-16T01:49:37.128Z,101952.59
2017-07-16T01:51:40.932Z,101954.45
2017-07-16T01:53:44.835Z,101952.00
2017-07-16T01:55:48.635Z,101949.38
2017-07-16T01:57:52.645Z,101943.88
2017-07-16T01:59:56.318Z,101946.67
2017-07-16T02:02:00.455Z,101944.16
2017-07-16T02:04:04.258Z,101943.11
2017-07-16T02:06:07.434Z,101939.98
2017-07-16T02:08:11.034Z,101942.54
2017-07-16T02:10:14.525Z,101952.28
2017-07-16T02:12:20.682Z,101942.61
2017-07-16T02:14:24.155Z,101949.95
2017-07-16T02:16:27.674Z,101952.16
2017-07-16T02:18:31.781Z,101949.58
2017-07-16T02:20:35.172Z,101944.23
2017-07-16T02:22:38.870Z,101940.52
2017-07-16T02:24:42.569Z,101937.81
2017-07-16T02:26:46.472Z,101938.48
2017-07-16T02:28:49.863Z,101934.07
2017-07-16T02:30:54.178Z,101934.27
2017-07-16T02:32:57.784Z,101930.12
2017-07-16T02:35:02.395Z,101934.07
2017-07-16T02:37:05.794Z,101932.98
2017-07-16T02:39:09.693Z,101934.75
2017-07-16T02:41:13.185Z,101929.27
2017-07-16T02:43:16.857Z,101932.72
2017-07-16T02:45:20.482Z,101933.14
2017-07-16T02:47:23.978Z,101938.55
2017-07-16T02:49:27.986Z,101939.60
2017-07-16T02:51:31.269Z,101934.27
2017-07-16T02:53:35.173Z,101936.04
2017-07-16T02:55:38.641Z,101937.55
2017-07-16T02:57:42.621Z,101940.67
2017-07-16T02:59:46.167Z,101937.97
2017-07-16T03:01:49.563Z,101936.70
2017-07-16T03:03:52.847Z,101937.12
2017-07-16T03:05:56.522Z,101941.03
2017-07-16T03:08:00.963Z,101941.03
2017-07-16T03:10:04.461Z,101942.13
2017-07-16T03:12:07.644Z,101939.84
2017-07-16T03:14:11.034Z,101947.04
2017-07-16T03:16:14.944Z,101948.90
2017-07-16T03:18:18.411Z,101944.25
2017-07-16T03:20:22.236Z,101948.08
2017-07-16T03:22:25.730Z,101942.47
2017-07-16T03:24:29.426Z,101947.55
2017-07-16T03:26:33.230Z,101946.38
2017-07-16T03:28:37.031Z,101947.97
2017-07-16T03:47:52.081Z,101945.95
2017-07-16T23:12:48.784Z,101863.77
2017-07-16T23:14:52.381Z,101865.63
2017-07-16T23:16:56.593Z,101859.88
2017-07-16T23:19:00.388Z,101860.80
2017-07-16T23:21:04.509Z,101860.30
2017-07-16T23:23:08.616Z,101867.07
2017-07-16T23:25:11.900Z,101863.34
2017-07-16T23:27:15.599Z,101866.79
2017-07-16T23:29:19.195Z,101865.63
2017-07-16T23:31:22.794Z,101861.99
2017-07-16T23:33:26.263Z,101861.45
2017-07-16T23:35:30.395Z,101855.64
2017-07-16T23:37:33.683Z,101855.52
2017-07-16T23:39:37.690Z,101856.99
2017-07-16T23:41:41.081Z,101859.28
2017-07-16T23:43:44.142Z,101854.67
2017-07-16T23:45:48.087Z,101851.88
2017-07-16T23:47:51.154Z,101854.42
2017-07-16T23:49:55.161Z,101851.80
2017-07-16T23:51:58.662Z,101854.93
2017-07-16T23:54:02.149Z,101848.86
2017-07-16T23:56:06.156Z,101847.08
2017-07-16T23:58:09.444Z,101844.73
